sensor_id;sensor_type;location;lat;lon;timestamp;P1;durP1;ratioP1;P2;durP2;ratioP2
51228;SDS011;37304;52.216;6.874;2022-09-12T00:04:43;21.38;;;12.32;;
51228;SDS011;37304;52.216;6.874;2022-09-12T00:09:43;22.77;;;11.68;;
51228;SDS011;37304;52.216;6.874;2022-09-12T00:14:43;24.20;;;12.60;;
51228;SDS011;37304;52.216;6.874;2022-09-12T00:19:44;20.60;;;11.10;;
51228;SDS011;37304;52.216;6.874;2022-09-12T00:24:44;21.00;;;10.57;;
51228;SDS011;37304;52.216;6.874;2022-09-12T00:29:44;22.43;;;11.73;;
51228;SDS011;37304;52.216;6.874;2022-09-12T00:34:45;22.23;;;11.47;;
51228;SDS011;37304;52.216;6.874;2022-09-12T00:39:45;22.80;;;11.37;;
51228;SDS011;37304;52.216;6.874;2022-09-12T00:44:47;21.13;;;10.10;;
51228;SDS011;37304;52.216;6.874;2022-09-12T00:49:57;17.55;;;9.70;;
51228;SDS011;37304;52.216;6.874;2022-09-12T00:55:07;22.80;;;11.45;;
51228;SDS011;37304;52.216;6.874;2022-09-12T01:00:19;21.05;;;10.82;;
51228;SDS011;37304;52.216;6.874;2022-09-12T01:05:21;17.77;;;10.02;;
51228;SDS011;37304;52.216;6.874;2022-09-12T01:10:23;17.08;;;9.57;;
51228;SDS011;37304;52.216;6.874;2022-09-12T01:15:24;18.83;;;9.93;;
51228;SDS011;37304;52.216;6.874;2022-09-12T01:31:30;17.30;;;9.75;;
51228;SDS011;37304;52.216;6.874;2022-09-12T01:41:58;20.17;;;10.10;;
51228;SDS011;37304;52.216;6.874;2022-09-12T01:47:20;20.95;;;10.55;;
51228;SDS011;37304;52.216;6.874;2022-09-12T01:52:37;18.30;;;9.95;;
51228;SDS011;37304;52.216;6.874;2022-09-12T01:57:45;20.55;;;10.75;;
51228;SDS011;37304;52.216;6.874;2022-09-12T02:08:10;22.20;;;10.98;;
51228;SDS011;37304;52.216;6.874;2022-09-12T02:13:16;23.67;;;11.63;;
51228;SDS011;37304;52.216;6.874;2022-09-12T02:18:22;23.00;;;11.07;;
51228;SDS011;37304;52.216;6.874;2022-09-12T02:23:27;23.95;;;11.57;;
51228;SDS011;37304;52.216;6.874;2022-09-12T02:28:32;28.83;;;11.75;;
51228;SDS011;37304;52.216;6.874;2022-09-12T02:33:43;22.58;;;11.88;;
51228;SDS011;37304;52.216;6.874;2022-09-12T02:39:08;24.27;;;11.02;;
51228;SDS011;37304;52.216;6.874;2022-09-12T02:44:08;22.00;;;11.00;;
51228;SDS011;37304;52.216;6.874;2022-09-12T02:49:09;24.57;;;12.47;;
51228;SDS011;37304;52.216;6.874;2022-09-12T02:54:09;24.00;;;11.23;;
51228;SDS011;37304;52.216;6.874;2022-09-12T02:59:12;26.30;;;12.77;;
51228;SDS011;37304;52.216;6.874;2022-09-12T03:04:21;30.55;;;13.55;;
51228;SDS011;37304;52.216;6.874;2022-09-12T03:10:21;32.15;;;14.90;;
51228;SDS011;37304;52.216;6.874;2022-09-12T03:20:13;30.83;;;14.85;;
51228;SDS011;37304;52.216;6.874;2022-09-12T03:25:39;31.23;;;14.45;;
51228;SDS011;37304;52.216;6.874;2022-09-12T03:30:47;32.05;;;14.85;;
51228;SDS011;37304;52.216;6.874;2022-09-12T03:35:50;32.97;;;14.82;;
51228;SDS011;37304;52.216;6.874;2022-09-12T03:40:51;34.70;;;15.40;;
51228;SDS011;37304;52.216;6.874;2022-09-12T03:45:52;35.67;;;14.98;;
51228;SDS011;37304;52.216;6.874;2022-09-12T03:50:52;36.10;;;15.70;;
51228;SDS011;37304;52.216;6.874;2022-09-12T03:55:52;34.28;;;15.75;;
51228;SDS011;37304;52.216;6.874;2022-09-12T04:00:53;35.13;;;14.60;;
51228;SDS011;37304;52.216;6.874;2022-09-12T04:05:56;33.70;;;15.53;;
51228;SDS011;37304;52.216;6.874;2022-09-12T04:11:06;36.33;;;14.70;;
51228;SDS011;37304;52.216;6.874;2022-09-12T04:16:09;35.72;;;15.27;;
51228;SDS011;37304;52.216;6.874;2022-09-12T04:21:11;34.30;;;15.35;;
51228;SDS011;37304;52.216;6.874;2022-09-12T04:26:13;35.05;;;15.68;;
51228;SDS011;37304;52.216;6.874;2022-09-12T04:31:16;39.83;;;16.63;;
51228;SDS011;37304;52.216;6.874;2022-09-12T04:36:19;33.97;;;15.32;;
51228;SDS011;37304;52.216;6.874;2022-09-12T04:46:21;41.17;;;15.43;;
51228;SDS011;37304;52.216;6.874;2022-09-12T04:51:25;38.47;;;14.87;;
51228;SDS011;37304;52.216;6.874;2022-09-12T04:56:28;34.20;;;15.25;;
51228;SDS011;37304;52.216;6.874;2022-09-12T05:01:29;34.42;;;14.75;;
51228;SDS011;37304;52.216;6.874;2022-09-12T05:06:30;33.43;;;14.70;;
51228;SDS011;37304;52.216;6.874;2022-09-12T05:11:34;35.53;;;14.90;;
51228;SDS011;37304;52.216;6.874;2022-09-12T05:16:36;31.85;;;14.00;;
51228;SDS011;37304;52.216;6.874;2022-09-12T05:21:37;34.37;;;14.93;;
51228;SDS011;37304;52.216;6.874;2022-09-12T05:26:37;31.95;;;13.75;;
51228;SDS011;37304;52.216;6.874;2022-09-12T05:31:38;33.40;;;14.50;;
51228;SDS011;37304;52.216;6.874;2022-09-12T05:36:38;30.57;;;13.97;;
51228;SDS011;37304;52.216;6.874;2022-09-12T05:41:38;33.78;;;13.80;;
51228;SDS011;37304;52.216;6.874;2022-09-12T05:46:40;31.27;;;13.70;;
51228;SDS011;37304;52.216;6.874;2022-09-12T05:51:43;32.22;;;14.95;;
51228;SDS011;37304;52.216;6.874;2022-09-12T05:56:45;33.17;;;13.88;;
51228;SDS011;37304;52.216;6.874;2022-09-12T06:01:46;33.10;;;14.00;;
51228;SDS011;37304;52.216;6.874;2022-09-12T06:06:47;33.03;;;13.77;;
51228;SDS011;37304;52.216;6.874;2022-09-12T06:11:47;36.65;;;14.20;;
51228;SDS011;37304;52.216;6.874;2022-09-12T06:16:48;34.93;;;14.17;;
51228;SDS011;37304;52.216;6.874;2022-09-12T06:21:48;30.30;;;13.25;;
51228;SDS011;37304;52.216;6.874;2022-09-12T06:26:49;28.83;;;12.97;;
51228;SDS011;37304;52.216;6.874;2022-09-12T06:31:51;31.27;;;13.85;;
51228;SDS011;37304;52.216;6.874;2022-09-12T06:36:52;31.57;;;13.77;;
51228;SDS011;37304;52.216;6.874;2022-09-12T06:41:52;31.37;;;14.53;;
51228;SDS011;37304;52.216;6.874;2022-09-12T06:46:53;31.13;;;13.27;;
51228;SDS011;37304;52.216;6.874;2022-09-12T06:51:53;30.83;;;13.73;;
51228;SDS011;37304;52.216;6.874;2022-09-12T06:56:54;28.35;;;13.60;;
51228;SDS011;37304;52.216;6.874;2022-09-12T07:01:54;28.27;;;13.13;;
51228;SDS011;37304;52.216;6.874;2022-09-12T07:06:55;30.98;;;13.30;;
51228;SDS011;37304;52.216;6.874;2022-09-12T07:11:55;32.50;;;13.60;;
51228;SDS011;37304;52.216;6.874;2022-09-12T07:16:56;28.52;;;13.70;;
51228;SDS011;37304;52.216;6.874;2022-09-12T07:21:56;32.10;;;13.40;;
51228;SDS011;37304;52.216;6.874;2022-09-12T07:26:56;29.43;;;13.90;;
51228;SDS011;37304;52.216;6.874;2022-09-12T07:31:56;26.85;;;13.00;;
51228;SDS011;37304;52.216;6.874;2022-09-12T07:36:57;29.47;;;12.37;;
51228;SDS011;37304;52.216;6.874;2022-09-12T07:41:57;28.60;;;13.70;;
51228;SDS011;37304;52.216;6.874;2022-09-12T07:46:59;28.90;;;13.60;;
51228;SDS011;37304;52.216;6.874;2022-09-12T07:52:00;44.88;;;12.88;;
51228;SDS011;37304;52.216;6.874;2022-09-12T07:57:01;24.83;;;12.13;;
51228;SDS011;37304;52.216;6.874;2022-09-12T08:02:01;24.27;;;12.23;;
51228;SDS011;37304;52.216;6.874;2022-09-12T08:07:02;24.77;;;11.05;;
51228;SDS011;37304;52.216;6.874;2022-09-12T08:12:03;24.23;;;11.93;;
51228;SDS011;37304;52.216;6.874;2022-09-12T08:17:03;27.13;;;12.25;;
51228;SDS011;37304;52.216;6.874;2022-09-12T08:22:04;24.92;;;11.70;;
51228;SDS011;37304;52.216;6.874;2022-09-12T08:27:05;25.00;;;12.27;;
51228;SDS011;37304;52.216;6.874;2022-09-12T08:32:06;26.40;;;12.05;;
51228;SDS011;37304;52.216;6.874;2022-09-12T08:37:06;23.30;;;11.07;;
51228;SDS011;37304;52.216;6.874;2022-09-12T08:42:08;25.30;;;11.70;;
51228;SDS011;37304;52.216;6.874;2022-09-12T08:58:01;20.70;;;10.73;;
51228;SDS011;37304;52.216;6.874;2022-09-12T09:13:59;24.90;;;12.02;;
51228;SDS011;37304;52.216;6.874;2022-09-12T09:19:22;21.77;;;11.40;;
51228;SDS011;37304;52.216;6.874;2022-09-12T09:24:37;23.73;;;10.93;;
51228;SDS011;37304;52.216;6.874;2022-09-12T09:34:47;20.52;;;12.80;;
51228;SDS011;37304;52.216;6.874;2022-09-12T09:44:52;21.35;;;11.32;;
51228;SDS011;37304;52.216;6.874;2022-09-12T09:49:54;20.95;;;10.98;;
51228;SDS011;37304;52.216;6.874;2022-09-12T09:54:59;18.77;;;9.73;;
51228;SDS011;37304;52.216;6.874;2022-09-12T10:05:24;23.50;;;11.13;;
51228;SDS011;37304;52.216;6.874;2022-09-12T10:10:25;21.95;;;10.02;;
51228;SDS011;37304;52.216;6.874;2022-09-12T10:15:25;15.80;;;9.27;;
51228;SDS011;37304;52.216;6.874;2022-09-12T10:25:46;15.68;;;8.95;;
51228;SDS011;37304;52.216;6.874;2022-09-12T10:30:55;16.08;;;8.40;;
51228;SDS011;37304;52.216;6.874;2022-09-12T10:35:56;12.20;;;7.45;;
51228;SDS011;37304;52.216;6.874;2022-09-12T10:41:01;13.07;;;7.32;;
51228;SDS011;37304;52.216;6.874;2022-09-12T10:56:23;12.02;;;6.53;;
51228;SDS011;37304;52.216;6.874;2022-09-12T11:06:36;27.75;;;9.63;;
51228;SDS011;37304;52.216;6.874;2022-09-12T11:11:42;13.43;;;7.53;;
51228;SDS011;37304;52.216;6.874;2022-09-12T11:22:35;8.30;;;5.00;;
51228;SDS011;37304;52.216;6.874;2022-09-12T11:33:47;10.43;;;6.03;;
51228;SDS011;37304;52.216;6.874;2022-09-12T11:39:00;6.35;;;4.70;;
51228;SDS011;37304;52.216;6.874;2022-09-12T11:44:23;8.77;;;4.07;;
51228;SDS011;37304;52.216;6.874;2022-09-12T11:49:30;6.65;;;3.75;;
51228;SDS011;37304;52.216;6.874;2022-09-12T11:54:37;5.60;;;2.90;;
51228;SDS011;37304;52.216;6.874;2022-09-12T11:59:46;5.07;;;3.17;;
51228;SDS011;37304;52.216;6.874;2022-09-12T12:05:04;5.60;;;3.60;;
51228;SDS011;37304;52.216;6.874;2022-09-12T12:16:02;3.83;;;2.70;;
51228;SDS011;37304;52.216;6.874;2022-09-12T12:21:18;4.63;;;3.15;;
51228;SDS011;37304;52.216;6.874;2022-09-12T12:52:50;3.53;;;2.30;;
51228;SDS011;37304;52.216;6.874;2022-09-12T12:57:57;13.73;;;3.53;;
51228;SDS011;37304;52.216;6.874;2022-09-12T13:08:54;3.03;;;2.53;;
51228;SDS011;37304;52.216;6.874;2022-09-12T13:13:32;3.17;;;2.30;;
51228;SDS011;37304;52.216;6.874;2022-09-12T13:18:54;3.75;;;3.03;;
51228;SDS011;37304;52.216;6.874;2022-09-12T13:24:01;4.18;;;2.90;;
51228;SDS011;37304;52.216;6.874;2022-09-12T13:29:07;5.00;;;2.58;;
51228;SDS011;37304;52.216;6.874;2022-09-12T13:34:16;3.10;;;2.13;;
51228;SDS011;37304;52.216;6.874;2022-09-12T13:39:20;3.38;;;2.60;;
51228;SDS011;37304;52.216;6.874;2022-09-12T13:44:24;2.92;;;2.17;;
51228;SDS011;37304;52.216;6.874;2022-09-12T13:49:31;7.75;;;2.92;;
51228;SDS011;37304;52.216;6.874;2022-09-12T13:54:32;7.57;;;3.45;;
51228;SDS011;37304;52.216;6.874;2022-09-12T13:59:37;3.08;;;2.40;;
51228;SDS011;37304;52.216;6.874;2022-09-12T14:04:38;3.83;;;2.65;;
51228;SDS011;37304;52.216;6.874;2022-09-12T14:09:58;4.60;;;2.80;;
51228;SDS011;37304;52.216;6.874;2022-09-12T14:14:59;5.38;;;2.33;;
51228;SDS011;37304;52.216;6.874;2022-09-12T14:20:01;4.95;;;2.80;;
51228;SDS011;37304;52.216;6.874;2022-09-12T14:30:18;3.28;;;2.50;;
51228;SDS011;37304;52.216;6.874;2022-09-12T14:35:26;4.70;;;2.70;;
51228;SDS011;37304;52.216;6.874;2022-09-12T14:40:27;3.88;;;2.40;;
51228;SDS011;37304;52.216;6.874;2022-09-12T14:45:28;4.87;;;2.67;;
51228;SDS011;37304;52.216;6.874;2022-09-12T14:50:31;3.90;;;2.25;;
51228;SDS011;37304;52.216;6.874;2022-09-12T14:55:40;4.47;;;3.03;;
51228;SDS011;37304;52.216;6.874;2022-09-12T15:00:59;5.18;;;3.28;;
51228;SDS011;37304;52.216;6.874;2022-09-12T15:06:02;3.53;;;2.90;;
51228;SDS011;37304;52.216;6.874;2022-09-12T15:11:04;4.22;;;2.95;;
51228;SDS011;37304;52.216;6.874;2022-09-12T15:16:06;5.25;;;3.03;;
51228;SDS011;37304;52.216;6.874;2022-09-12T15:21:12;4.57;;;2.90;;
51228;SDS011;37304;52.216;6.874;2022-09-12T15:26:21;3.83;;;2.63;;
51228;SDS011;37304;52.216;6.874;2022-09-12T15:31:26;5.28;;;3.05;;
51228;SDS011;37304;52.216;6.874;2022-09-12T15:36:29;5.68;;;3.10;;
51228;SDS011;37304;52.216;6.874;2022-09-12T15:41:30;8.18;;;3.10;;
51228;SDS011;37304;52.216;6.874;2022-09-12T15:46:34;3.75;;;2.70;;
51228;SDS011;37304;52.216;6.874;2022-09-12T15:51:34;4.70;;;3.27;;
51228;SDS011;37304;52.216;6.874;2022-09-12T15:56:36;3.63;;;2.42;;
51228;SDS011;37304;52.216;6.874;2022-09-12T16:01:36;5.03;;;3.15;;
51228;SDS011;37304;52.216;6.874;2022-09-12T16:06:36;5.13;;;2.40;;
51228;SDS011;37304;52.216;6.874;2022-09-12T16:11:36;5.60;;;2.38;;
51228;SDS011;37304;52.216;6.874;2022-09-12T16:16:37;5.50;;;2.53;;
51228;SDS011;37304;52.216;6.874;2022-09-12T16:21:37;3.30;;;2.33;;
51228;SDS011;37304;52.216;6.874;2022-09-12T16:26:38;3.67;;;2.33;;
51228;SDS011;37304;52.216;6.874;2022-09-12T16:31:38;4.43;;;2.80;;
51228;SDS011;37304;52.216;6.874;2022-09-12T16:36:39;3.30;;;2.22;;
51228;SDS011;37304;52.216;6.874;2022-09-12T16:41:39;4.20;;;2.50;;
51228;SDS011;37304;52.216;6.874;2022-09-12T16:46:41;4.22;;;2.05;;
51228;SDS011;37304;52.216;6.874;2022-09-12T16:51:41;2.65;;;1.95;;
51228;SDS011;37304;52.216;6.874;2022-09-12T16:56:46;2.63;;;2.03;;
51228;SDS011;37304;52.216;6.874;2022-09-12T17:01:48;3.30;;;2.53;;
51228;SDS011;37304;52.216;6.874;2022-09-12T17:06:49;2.70;;;2.10;;
51228;SDS011;37304;52.216;6.874;2022-09-12T17:11:49;3.03;;;2.20;;
51228;SDS011;37304;52.216;6.874;2022-09-12T17:16:52;8.13;;;2.42;;
51228;SDS011;37304;52.216;6.874;2022-09-12T17:21:52;5.63;;;2.30;;
51228;SDS011;37304;52.216;6.874;2022-09-12T17:26:53;3.05;;;2.00;;
51228;SDS011;37304;52.216;6.874;2022-09-12T17:31:54;6.07;;;2.53;;
51228;SDS011;37304;52.216;6.874;2022-09-12T17:36:54;2.90;;;2.30;;
51228;SDS011;37304;52.216;6.874;2022-09-12T17:41:56;6.77;;;2.63;;
51228;SDS011;37304;52.216;6.874;2022-09-12T17:46:57;4.53;;;2.28;;
51228;SDS011;37304;52.216;6.874;2022-09-12T17:51:58;3.50;;;2.47;;
51228;SDS011;37304;52.216;6.874;2022-09-12T17:56:58;4.80;;;2.75;;
51228;SDS011;37304;52.216;6.874;2022-09-12T18:01:58;4.67;;;2.70;;
51228;SDS011;37304;52.216;6.874;2022-09-12T18:07:15;4.30;;;2.58;;
51228;SDS011;37304;52.216;6.874;2022-09-12T18:12:19;3.38;;;2.80;;
51228;SDS011;37304;52.216;6.874;2022-09-12T18:17:20;4.17;;;2.70;;
51228;SDS011;37304;52.216;6.874;2022-09-12T18:22:20;6.27;;;3.00;;
51228;SDS011;37304;52.216;6.874;2022-09-12T18:27:20;5.67;;;3.30;;
51228;SDS011;37304;52.216;6.874;2022-09-12T18:32:21;4.47;;;2.22;;
51228;SDS011;37304;52.216;6.874;2022-09-12T18:37:21;3.63;;;2.55;;
51228;SDS011;37304;52.216;6.874;2022-09-12T18:42:21;3.45;;;2.38;;
51228;SDS011;37304;52.216;6.874;2022-09-12T18:47:22;4.47;;;3.00;;
51228;SDS011;37304;52.216;6.874;2022-09-12T18:52:22;5.20;;;3.03;;
51228;SDS011;37304;52.216;6.874;2022-09-12T18:57:23;5.67;;;2.83;;
51228;SDS011;37304;52.216;6.874;2022-09-12T19:02:24;5.55;;;3.20;;
51228;SDS011;37304;52.216;6.874;2022-09-12T19:07:27;8.77;;;3.60;;
51228;SDS011;37304;52.216;6.874;2022-09-12T19:12:27;5.27;;;3.10;;
51228;SDS011;37304;52.216;6.874;2022-09-12T19:22:27;4.55;;;3.03;;
51228;SDS011;37304;52.216;6.874;2022-09-12T19:27:28;4.20;;;2.83;;
51228;SDS011;37304;52.216;6.874;2022-09-12T19:32:29;3.83;;;3.03;;
51228;SDS011;37304;52.216;6.874;2022-09-12T19:42:29;5.70;;;2.88;;
51228;SDS011;37304;52.216;6.874;2022-09-12T19:47:29;4.80;;;3.17;;
51228;SDS011;37304;52.216;6.874;2022-09-12T19:52:30;5.25;;;3.63;;
51228;SDS011;37304;52.216;6.874;2022-09-12T19:57:30;5.88;;;3.53;;
51228;SDS011;37304;52.216;6.874;2022-09-12T20:02:30;5.90;;;3.20;;
51228;SDS011;37304;52.216;6.874;2022-09-12T20:07:31;4.28;;;3.50;;
51228;SDS011;37304;52.216;6.874;2022-09-12T20:12:31;8.25;;;3.00;;
51228;SDS011;37304;52.216;6.874;2022-09-12T20:17:31;5.38;;;3.53;;
51228;SDS011;37304;52.216;6.874;2022-09-12T20:22:32;4.07;;;3.20;;
51228;SDS011;37304;52.216;6.874;2022-09-12T20:27:32;5.47;;;3.30;;
51228;SDS011;37304;52.216;6.874;2022-09-12T20:32:32;6.23;;;3.40;;
51228;SDS011;37304;52.216;6.874;2022-09-12T20:37:33;5.90;;;3.50;;
51228;SDS011;37304;52.216;6.874;2022-09-12T20:42:34;4.35;;;3.30;;
51228;SDS011;37304;52.216;6.874;2022-09-12T20:47:35;10.13;;;4.00;;
51228;SDS011;37304;52.216;6.874;2022-09-12T20:52:35;8.33;;;4.00;;
51228;SDS011;37304;52.216;6.874;2022-09-12T20:57:36;6.00;;;3.70;;
51228;SDS011;37304;52.216;6.874;2022-09-12T21:02:36;6.20;;;4.18;;
51228;SDS011;37304;52.216;6.874;2022-09-12T21:07:36;8.73;;;4.38;;
51228;SDS011;37304;52.216;6.874;2022-09-12T21:12:36;6.93;;;4.22;;
51228;SDS011;37304;52.216;6.874;2022-09-12T21:17:37;7.15;;;4.80;;
51228;SDS011;37304;52.216;6.874;2022-09-12T21:22:37;7.63;;;4.65;;
51228;SDS011;37304;52.216;6.874;2022-09-12T21:27:38;6.53;;;3.87;;
51228;SDS011;37304;52.216;6.874;2022-09-12T21:32:38;5.20;;;3.95;;
51228;SDS011;37304;52.216;6.874;2022-09-12T21:37:38;8.60;;;4.67;;
51228;SDS011;37304;52.216;6.874;2022-09-12T21:42:39;5.37;;;4.13;;
51228;SDS011;37304;52.216;6.874;2022-09-12T21:47:39;8.93;;;4.67;;
51228;SDS011;37304;52.216;6.874;2022-09-12T21:52:39;7.68;;;5.00;;
51228;SDS011;37304;52.216;6.874;2022-09-12T21:57:40;10.77;;;5.20;;
51228;SDS011;37304;52.216;6.874;2022-09-12T22:02:40;8.50;;;4.57;;
51228;SDS011;37304;52.216;6.874;2022-09-12T22:07:41;7.80;;;4.93;;
51228;SDS011;37304;52.216;6.874;2022-09-12T22:12:41;9.17;;;5.20;;
51228;SDS011;37304;52.216;6.874;2022-09-12T22:17:42;8.13;;;4.67;;
51228;SDS011;37304;52.216;6.874;2022-09-12T22:22:42;6.93;;;4.67;;
51228;SDS011;37304;52.216;6.874;2022-09-12T22:28:01;7.55;;;4.55;;
51228;SDS011;37304;52.216;6.874;2022-09-12T22:33:01;7.47;;;5.10;;
51228;SDS011;37304;52.216;6.874;2022-09-12T22:38:01;9.23;;;4.83;;
51228;SDS011;37304;52.216;6.874;2022-09-12T22:43:02;7.13;;;5.47;;
51228;SDS011;37304;52.216;6.874;2022-09-12T22:48:02;7.93;;;5.13;;
51228;SDS011;37304;52.216;6.874;2022-09-12T22:53:02;7.18;;;4.80;;
51228;SDS011;37304;52.216;6.874;2022-09-12T22:58:03;8.97;;;5.17;;
51228;SDS011;37304;52.216;6.874;2022-09-12T23:03:03;7.27;;;5.17;;
51228;SDS011;37304;52.216;6.874;2022-09-12T23:08:03;10.30;;;6.30;;
51228;SDS011;37304;52.216;6.874;2022-09-12T23:13:04;9.10;;;5.57;;
51228;SDS011;37304;52.216;6.874;2022-09-12T23:18:04;10.13;;;5.73;;
51228;SDS011;37304;52.216;6.874;2022-09-12T23:23:05;11.90;;;6.40;;
51228;SDS011;37304;52.216;6.874;2022-09-12T23:28:05;9.95;;;6.32;;
51228;SDS011;37304;52.216;6.874;2022-09-12T23:33:05;10.10;;;6.72;;
51228;SDS011;37304;52.216;6.874;2022-09-12T23:38:06;10.73;;;6.38;;
51228;SDS011;37304;52.216;6.874;2022-09-12T23:43:06;10.18;;;6.07;;
51228;SDS011;37304;52.216;6.874;2022-09-12T23:48:07;10.13;;;6.63;;
51228;SDS011;37304;52.216;6.874;2022-09-12T23:53:07;10.73;;;6.90;;
51228;SDS011;37304;52.216;6.874;2022-09-12T23:58:08;12.23;;;7.13;;
